createdAt,value
2019-02-02T00:00:13.702Z,98.67
2019-02-02T00:01:13.652Z,98.25
2019-02-02T00:02:13.645Z,98.46
2019-02-02T00:03:13.632Z,98.04
2019-02-02T00:04:13.620Z,98.56
2019-02-02T00:05:13.609Z,98.46
2019-02-02T00:06:13.624Z,98.52
2019-02-02T00:07:13.588Z,98.14
2019-02-02T00:08:13.588Z,98.14
2019-02-02T00:09:13.567Z,97.99
2019-02-02T00:10:13.556Z,98.21
2019-02-02T00:11:13.544Z,98.56
2019-02-02T00:12:13.548Z,97.78
2019-02-02T00:13:13.523Z,98.10
2019-02-02T00:14:13.517Z,97.99
2019-02-02T00:15:13.501Z,98.41
2019-02-02T00:16:13.491Z,98.10
2019-02-02T00:17:13.507Z,98.52
2019-02-02T00:18:13.469Z,98.41
2019-02-02T00:19:13.528Z,98.41
2019-02-02T00:20:13.455Z,98.41
2019-02-02T00:21:13.437Z,97.78
2019-02-02T00:22:13.425Z,98.62
2019-02-02T00:23:13.446Z,98.25
2019-02-02T00:24:13.401Z,97.58
2019-02-02T00:25:13.392Z,97.68
2019-02-02T00:26:13.388Z,97.99
2019-02-02T00:27:13.370Z,97.99
2019-02-02T00:28:13.357Z,97.78
2019-02-02T00:29:13.385Z,97.47
2019-02-02T00:30:13.337Z,98.31
2019-02-02T00:31:13.328Z,98.10
2019-02-02T00:32:13.322Z,98.31
2019-02-02T00:33:13.303Z,98.31
2019-02-02T00:34:13.295Z,98.21
2019-02-02T00:35:13.296Z,98.21
2019-02-02T00:36:13.283Z,98.41
2019-02-02T00:37:13.367Z,97.99
2019-02-02T00:38:13.253Z,97.68
2019-02-02T00:39:13.239Z,98.10
2019-02-02T00:40:13.240Z,98.10
2019-02-02T00:41:13.216Z,97.16
2019-02-02T00:42:13.206Z,97.26
2019-02-02T00:43:13.195Z,97.78
2019-02-02T00:44:13.202Z,97.89
2019-02-02T00:45:13.187Z,97.36
2019-02-02T00:46:13.166Z,97.47
2019-02-02T00:47:13.152Z,97.26
2019-02-02T00:48:13.149Z,97.89
2019-02-02T00:49:13.130Z,97.47
2019-02-02T00:50:13.179Z,97.85
2019-02-02T00:51:13.108Z,98.10
2019-02-02T00:52:13.098Z,98.31
2019-02-02T00:53:13.087Z,98.10
2019-02-02T00:54:13.078Z,97.47
2019-02-02T00:55:13.066Z,97.47
2019-02-02T00:56:13.120Z,97.16
2019-02-02T00:57:13.042Z,97.05
2019-02-02T00:58:13.031Z,97.47
2019-02-02T00:59:13.022Z,97.47
2019-02-02T01:00:13.011Z,97.36
2019-02-02T01:01:13.000Z,97.58
2019-02-02T01:02:13.029Z,97.74
2019-02-02T01:03:12.978Z,97.68
2019-02-02T01:04:12.968Z,97.32
2019-02-02T01:05:12.957Z,97.47
2019-02-02T01:06:12.946Z,97.78
2019-02-02T01:07:12.938Z,97.78
2019-02-02T01:08:12.943Z,97.00
2019-02-02T01:09:12.912Z,96.37
2019-02-02T01:10:12.903Z,96.53
2019-02-02T01:11:12.890Z,96.27
2019-02-02T01:12:12.880Z,96.37
2019-02-02T01:13:12.881Z,96.27
2019-02-02T01:14:12.863Z,96.27
2019-02-02T01:15:12.848Z,96.63
2019-02-02T01:16:12.837Z,96.84
2019-02-02T01:17:12.825Z,96.84
2019-02-02T01:18:12.837Z,96.84
2019-02-02T01:19:12.806Z,96.53
2019-02-02T01:20:12.797Z,96.17
2019-02-02T01:21:12.785Z,96.31
2019-02-02T01:22:12.772Z,96.63
2019-02-02T01:23:12.762Z,96.73
2019-02-02T01:24:12.784Z,96.42
2019-02-02T01:25:12.754Z,97.26
2019-02-02T01:26:12.734Z,97.16
2019-02-02T01:27:12.825Z,96.84
2019-02-02T01:28:12.706Z,97.32
2019-02-02T01:29:12.695Z,96.94
2019-02-02T01:30:12.699Z,97.16
2019-02-02T01:31:12.686Z,97.63
2019-02-02T01:32:14.049Z,97.53
2019-02-02T01:33:12.651Z,97.26
2019-02-02T01:34:12.641Z,97.42
2019-02-02T01:35:12.628Z,97.47
2019-02-02T01:36:12.632Z,97.42
2019-02-02T01:37:12.608Z,96.84
2019-02-02T01:38:12.601Z,96.80
2019-02-02T01:39:12.584Z,96.80
2019-02-02T01:40:12.574Z,96.69
2019-02-02T01:41:12.590Z,97.00
2019-02-02T01:42:12.553Z,96.37
2019-02-02T01:43:12.543Z,96.59
2019-02-02T01:44:12.553Z,96.27
2019-02-02T01:45:12.520Z,96.59
2019-02-02T01:46:12.515Z,96.48
2019-02-02T01:47:12.511Z,96.48
2019-02-02T01:48:12.487Z,96.90
2019-02-02T01:49:12.476Z,96.90
2019-02-02T01:50:12.469Z,96.90
2019-02-02T01:51:12.463Z,96.90
2019-02-02T01:52:12.466Z,96.80
2019-02-02T01:53:12.433Z,96.80
2019-02-02T01:54:12.424Z,96.48
2019-02-02T01:55:12.519Z,96.69
2019-02-02T01:56:12.405Z,96.59
2019-02-02T01:57:12.395Z,96.90
2019-02-02T01:58:16.793Z,96.59
2019-02-02T01:59:12.366Z,96.48
2019-02-02T02:00:12.356Z,96.69
2019-02-02T02:01:12.459Z,96.48
2019-02-02T02:02:12.340Z,96.48
2019-02-02T02:03:12.324Z,96.48
2019-02-02T02:04:12.347Z,96.80
2019-02-02T02:05:12.300Z,96.17
2019-02-02T02:06:12.289Z,96.80
2019-02-02T02:07:12.287Z,96.90
2019-02-02T02:08:12.274Z,96.59
2019-02-02T02:09:12.257Z,96.27
2019-02-02T02:10:12.262Z,96.69
2019-02-02T02:11:12.235Z,95.96
2019-02-02T02:12:12.225Z,96.37
2019-02-02T02:13:12.215Z,96.59
2019-02-02T02:14:12.208Z,96.44
2019-02-02T02:15:12.208Z,96.06
2019-02-02T02:16:12.182Z,96.59
2019-02-02T02:17:12.208Z,96.75
2019-02-02T02:18:12.159Z,96.80
2019-02-02T02:19:12.149Z,96.90
2019-02-02T02:20:12.143Z,96.44
2019-02-02T02:21:12.126Z,96.80
2019-02-02T02:22:12.118Z,96.86
2019-02-02T02:23:12.156Z,96.27
2019-02-02T02:24:12.094Z,95.92
2019-02-02T02:25:12.084Z,96.02
2019-02-02T02:26:12.085Z,96.12
2019-02-02T02:27:12.065Z,96.48
2019-02-02T02:28:12.051Z,95.96
2019-02-02T02:29:12.052Z,96.06
2019-02-02T02:30:12.030Z,96.06
2019-02-02T02:31:12.016Z,96.48
2019-02-02T02:32:12.013Z,96.48
2019-02-02T02:33:11.996Z,96.69
2019-02-02T02:34:12.025Z,96.48
2019-02-02T02:35:11.975Z,96.06
2019-02-02T02:36:11.965Z,96.27
2019-02-02T02:37:11.959Z,96.17
2019-02-02T02:38:11.941Z,96.06
2019-02-02T02:39:11.931Z,95.75
2019-02-02T02:40:11.951Z,96.17
2019-02-02T02:41:11.915Z,96.17
2019-02-02T02:42:11.933Z,96.12
2019-02-02T02:43:11.894Z,96.27
2019-02-02T02:44:11.879Z,95.86
2019-02-02T02:45:11.866Z,96.02
2019-02-02T02:46:11.855Z,96.02
2019-02-02T02:47:11.844Z,96.17
2019-02-02T02:48:12.008Z,96.12
2019-02-02T02:49:11.828Z,96.33
2019-02-02T02:50:11.811Z,96.37
2019-02-02T02:51:11.801Z,96.02
2019-02-02T02:52:11.788Z,96.23
2019-02-02T02:53:11.788Z,96.12
2019-02-02T02:54:11.798Z,95.92
2019-02-02T02:55:11.766Z,95.96
2019-02-02T02:56:11.749Z,96.12
2019-02-02T02:57:11.740Z,96.27
2019-02-02T02:58:11.723Z,96.02
2019-02-02T02:59:11.712Z,96.12
2019-02-02T03:00:11.741Z,96.12
2019-02-02T03:01:11.698Z,96.27
2019-02-02T03:02:11.684Z,96.12
2019-02-02T03:03:11.667Z,96.12
2019-02-02T03:04:11.657Z,95.96
2019-02-02T03:05:11.648Z,96.27
2019-02-02T03:06:11.671Z,95.75
2019-02-02T03:07:11.630Z,96.27
2019-02-02T03:08:11.615Z,96.37
2019-02-02T03:09:11.604Z,95.92
2019-02-02T03:10:11.591Z,96.33
2019-02-02T03:11:11.583Z,96.12
2019-02-02T03:12:11.608Z,96.23
2019-02-02T03:13:11.583Z,96.02
2019-02-02T03:14:11.558Z,95.70
2019-02-02T03:15:11.538Z,95.70
2019-02-02T03:16:11.527Z,96.06
2019-02-02T03:17:11.516Z,96.02
2019-02-02T03:18:11.519Z,96.23
2019-02-02T03:19:11.499Z,96.44
2019-02-02T03:20:11.495Z,96.33
2019-02-02T03:21:11.484Z,96.23
2019-02-02T03:22:11.463Z,96.44
2019-02-02T03:23:11.474Z,96.17
2019-02-02T03:24:11.440Z,95.92
2019-02-02T03:25:11.448Z,96.33
2019-02-02T03:26:11.422Z,95.60
2019-02-02T03:27:11.406Z,95.86
2019-02-02T03:28:11.395Z,95.18
2019-02-02T03:29:11.386Z,95.23
2019-02-02T03:30:11.406Z,95.29
2019-02-02T03:31:11.380Z,95.29
2019-02-02T03:32:11.370Z,95.70
2019-02-02T03:33:11.349Z,96.33
2019-02-02T03:34:11.333Z,95.29
2019-02-02T03:35:11.356Z,95.07
2019-02-02T03:36:11.310Z,95.07
2019-02-02T03:37:11.298Z,95.39
2019-02-02T03:38:11.295Z,96.12
2019-02-02T03:39:11.279Z,96.23
2019-02-02T03:40:11.270Z,96.12
2019-02-02T03:41:11.266Z,96.02
2019-02-02T03:42:11.276Z,96.27
2019-02-02T03:43:11.233Z,96.12
2019-02-02T03:44:11.241Z,95.92
2019-02-02T03:45:11.241Z,96.12
2019-02-02T03:46:11.219Z,95.92
2019-02-02T03:47:11.188Z,96.23
2019-02-02T03:48:11.179Z,95.70
2019-02-02T03:49:11.168Z,96.02
2019-02-02T03:50:11.166Z,95.81
2019-02-02T03:51:11.144Z,96.33
2019-02-02T03:52:11.147Z,95.70
2019-02-02T03:53:11.141Z,96.06
2019-02-02T03:54:11.126Z,96.12
2019-02-02T03:55:11.130Z,95.92
2019-02-02T03:56:11.093Z,96.02
2019-02-02T03:57:11.095Z,96.02
2019-02-02T03:58:11.069Z,96.02
2019-02-02T03:59:11.057Z,95.92
2019-02-02T04:00:11.046Z,95.96
2019-02-02T04:01:11.049Z,96.27
2019-02-02T04:02:11.031Z,96.06
2019-02-02T04:03:11.016Z,96.23
2019-02-02T04:04:11.003Z,95.92
2019-02-02T04:05:10.992Z,95.92
2019-02-02T04:06:11.013Z,95.92
2019-02-02T04:07:10.972Z,96.33
2019-02-02T04:08:11.082Z,96.02
2019-02-02T04:09:10.955Z,95.86
2019-02-02T04:10:10.939Z,95.96
2019-02-02T04:11:10.928Z,96.23
2019-02-02T04:12:10.927Z,96.27
2019-02-02T04:13:10.904Z,96.12
2019-02-02T04:14:10.895Z,96.27
2019-02-02T04:15:10.905Z,96.48
2019-02-02T04:16:10.875Z,96.27
2019-02-02T04:17:10.898Z,96.55
2019-02-02T04:18:10.851Z,95.92
2019-02-02T04:19:10.840Z,95.92
2019-02-02T04:20:10.829Z,96.12
2019-02-02T04:21:10.822Z,96.02
2019-02-02T04:22:10.808Z,95.81
2019-02-02T04:23:10.819Z,96.48
2019-02-02T04:24:10.792Z,95.50
2019-02-02T04:25:10.776Z,95.60
2019-02-02T04:26:10.763Z,96.33
2019-02-02T04:27:10.763Z,96.23
2019-02-02T04:28:10.742Z,95.81
2019-02-02T04:29:17.498Z,95.92
2019-02-02T04:30:11.719Z,95.81
2019-02-02T04:31:10.707Z,96.27
2019-02-02T04:32:10.699Z,96.02
2019-02-02T04:33:10.695Z,96.59
2019-02-02T04:34:10.690Z,96.55
2019-02-02T04:35:10.696Z,96.02
2019-02-02T04:36:10.665Z,96.27
2019-02-02T04:37:10.645Z,96.02
2019-02-02T04:38:10.634Z,96.44
2019-02-02T04:39:10.719Z,96.44
2019-02-02T04:40:10.611Z,95.96
2019-02-02T04:41:10.624Z,95.92
2019-02-02T04:42:10.588Z,95.92
2019-02-02T04:43:10.579Z,96.17
2019-02-02T04:44:10.587Z,96.27
2019-02-02T04:45:10.575Z,96.44
2019-02-02T04:46:10.545Z,96.23
2019-02-02T04:47:10.535Z,96.23
2019-02-02T04:48:10.547Z,96.02
2019-02-02T04:49:10.513Z,96.48
2019-02-02T04:50:10.504Z,95.81
2019-02-02T04:51:10.496Z,96.44
2019-02-02T04:52:10.480Z,96.44
2019-02-02T04:53:10.468Z,96.12
2019-02-02T04:54:10.471Z,96.17
2019-02-02T04:55:10.448Z,96.80
2019-02-02T04:56:10.439Z,96.75
2019-02-02T04:57:10.445Z,96.90
2019-02-02T04:58:10.422Z,96.59
2019-02-02T04:59:10.410Z,96.59
2019-02-02T05:00:10.393Z,96.69
2019-02-02T05:01:10.393Z,96.06
2019-02-02T05:02:10.372Z,96.59
2019-02-02T05:03:10.382Z,96.69
2019-02-02T05:04:10.348Z,96.48
2019-02-02T05:05:10.343Z,96.27
2019-02-02T05:06:10.331Z,96.23
2019-02-02T05:07:10.321Z,96.69
2019-02-02T05:08:10.320Z,96.69
2019-02-02T05:09:10.323Z,96.90
2019-02-02T05:10:10.367Z,96.80
2019-02-02T05:11:10.285Z,96.80
2019-02-02T05:12:10.265Z,97.11
2019-02-02T05:13:10.264Z,97.85
2019-02-02T05:14:10.240Z,97.63
2019-02-02T05:15:10.236Z,97.74
2019-02-02T05:16:10.226Z,97.74
2019-02-02T05:17:10.242Z,97.85
2019-02-02T05:18:10.197Z,97.74
2019-02-02T05:19:10.186Z,97.42
2019-02-02T05:20:10.175Z,97.49
2019-02-02T05:21:10.167Z,96.90
2019-02-02T05:22:10.154Z,96.65
2019-02-02T05:23:10.166Z,96.80
2019-02-02T05:24:10.131Z,97.38
2019-02-02T05:25:10.122Z,97.74
2019-02-02T05:26:10.114Z,97.38
2019-02-02T05:27:10.104Z,97.17
2019-02-02T05:28:10.087Z,97.53
2019-02-02T05:29:10.090Z,97.42
2019-02-02T05:30:10.068Z,97.74
2019-02-02T05:31:10.060Z,97.74
2019-02-02T05:32:10.048Z,97.28
2019-02-02T05:33:10.036Z,97.28
2019-02-02T05:34:10.182Z,97.17
2019-02-02T05:35:10.011Z,97.42
2019-02-02T05:36:09.999Z,97.32
2019-02-02T05:37:09.988Z,97.32
2019-02-02T05:38:09.978Z,97.32
2019-02-02T05:39:09.974Z,98.05
2019-02-02T05:40:09.970Z,98.05
2019-02-02T05:41:09.947Z,97.74
2019-02-02T05:42:09.934Z,97.85
2019-02-02T05:43:09.950Z,98.37
2019-02-02T05:44:09.915Z,98.26
2019-02-02T05:45:09.908Z,98.16
2019-02-02T05:46:09.890Z,98.05
2019-02-02T05:47:09.879Z,98.16
2019-02-02T05:48:09.877Z,97.95
2019-02-02T05:49:09.871Z,98.16
2019-02-02T05:50:09.848Z,98.26
2019-02-02T05:51:09.839Z,98.05
2019-02-02T05:52:09.943Z,98.58
2019-02-02T05:53:09.814Z,98.58
2019-02-02T05:54:09.804Z,98.37
2019-02-02T05:55:09.792Z,98.37
2019-02-02T05:56:09.789Z,98.58
2019-02-02T05:57:09.779Z,98.37
2019-02-02T05:58:09.773Z,98.05
2019-02-02T05:59:09.777Z,98.16
2019-02-02T06:00:09.737Z,98.37
2019-02-02T06:01:09.727Z,98.26
2019-02-02T06:02:09.715Z,98.26
2019-02-02T06:03:09.712Z,98.26
2019-02-02T06:04:09.709Z,97.63
2019-02-02T06:05:09.685Z,97.85
2019-02-02T06:06:09.673Z,97.74
2019-02-02T06:07:09.664Z,98.16
2019-02-02T06:08:09.651Z,97.74
2019-02-02T06:09:09.682Z,97.63
2019-02-02T06:10:09.629Z,97.95
2019-02-02T06:11:09.617Z,97.95
2019-02-02T06:12:09.607Z,97.85
2019-02-02T06:13:09.598Z,98.05
2019-02-02T06:14:09.593Z,97.95
2019-02-02T06:15:09.602Z,97.95
2019-02-02T06:16:09.570Z,98.05
2019-02-02T06:17:09.554Z,98.05
2019-02-02T06:18:09.551Z,97.85
2019-02-02T06:19:09.531Z,97.85
2019-02-02T06:20:09.519Z,98.05
2019-02-02T06:21:09.557Z,98.05
2019-02-02T06:22:09.500Z,97.95
2019-02-02T06:23:09.486Z,97.74
2019-02-02T06:24:09.477Z,98.37
2019-02-02T06:25:09.465Z,98.05
2019-02-02T06:26:09.461Z,98.05
2019-02-02T06:27:09.454Z,98.47
2019-02-02T06:28:09.467Z,98.05
2019-02-02T06:29:09.419Z,98.05
2019-02-02T06:30:09.442Z,98.37
2019-02-02T06:31:09.399Z,98.47
2019-02-02T06:32:12.000Z,98.05
2019-02-02T06:33:09.384Z,97.74
2019-02-02T06:34:09.374Z,98.37
2019-02-02T06:35:09.356Z,97.95
2019-02-02T06:36:09.357Z,97.95
2019-02-02T06:37:09.341Z,98.05
2019-02-02T06:38:09.323Z,98.37
2019-02-02T06:39:09.313Z,98.05
2019-02-02T06:40:09.323Z,98.47
2019-02-02T06:41:09.289Z,98.58
2019-02-02T06:42:09.279Z,98.68
2019-02-02T06:43:09.285Z,98.16
2019-02-02T06:44:09.258Z,97.95
2019-02-02T06:45:09.283Z,97.91
2019-02-02T06:46:09.241Z,98.68
2019-02-02T06:47:09.225Z,98.47
2019-02-02T06:48:09.212Z,98.89
2019-02-02T06:49:09.202Z,98.79
2019-02-02T06:50:09.193Z,98.54
2019-02-02T06:51:09.212Z,98.68
2019-02-02T06:52:09.176Z,98.79
2019-02-02T06:53:09.166Z,99.10
2019-02-02T06:54:09.149Z,99.31
2019-02-02T06:55:09.135Z,99.73
2019-02-02T06:56:09.127Z,99.73
2019-02-02T06:57:09.128Z,99.52
2019-02-02T06:58:09.110Z,99.63
2019-02-02T06:59:09.093Z,99.94
2019-02-02T07:00:15.779Z,99.52
2019-02-02T07:01:10.070Z,99.68
2019-02-02T07:02:09.074Z,99.84
2019-02-02T07:03:09.051Z,99.99
2019-02-02T07:04:09.043Z,99.73
2019-02-02T07:05:09.028Z,99.90
2019-02-02T07:06:09.030Z,99.99
2019-02-02T07:07:09.006Z,99.99
2019-02-02T07:08:08.994Z,99.90
2019-02-02T07:09:08.985Z,99.94
2019-02-02T07:10:09.015Z,99.63
2019-02-02T07:11:08.962Z,99.94
2019-02-02T07:12:08.951Z,99.94
2019-02-02T07:13:08.941Z,99.99
2019-02-02T07:14:08.929Z,99.99
2019-02-02T07:15:08.926Z,99.73
2019-02-02T07:16:08.953Z,99.37
2019-02-02T07:17:08.897Z,99.58
2019-02-02T07:18:08.886Z,99.58
2019-02-02T07:19:08.876Z,99.73
2019-02-02T07:20:08.869Z,99.84
2019-02-02T07:21:08.860Z,99.58
2019-02-02T07:22:08.865Z,99.52
2019-02-02T07:23:08.845Z,98.95
2019-02-02T07:24:08.820Z,98.85
2019-02-02T07:25:08.810Z,99.16
2019-02-02T07:26:08.802Z,99.00
2019-02-02T07:27:08.821Z,98.89
2019-02-02T07:28:08.782Z,99.16
2019-02-02T07:29:08.765Z,98.68
2019-02-02T07:30:08.762Z,98.85
2019-02-02T07:31:08.744Z,98.95
2019-02-02T07:32:08.733Z,98.95
2019-02-02T07:33:08.745Z,98.85
2019-02-02T07:34:08.717Z,99.16
2019-02-02T07:35:08.701Z,99.27
2019-02-02T07:36:08.690Z,98.64
2019-02-02T07:37:08.677Z,99.00
2019-02-02T07:38:08.668Z,98.85
2019-02-02T07:39:08.669Z,98.95
2019-02-02T07:40:08.657Z,98.74
2019-02-02T07:41:08.637Z,98.85
2019-02-02T07:42:08.631Z,98.74
2019-02-02T07:43:08.612Z,98.54
2019-02-02T07:44:08.613Z,98.74
2019-02-02T07:45:08.589Z,98.95
2019-02-02T07:46:15.098Z,99.16
2019-02-02T07:47:09.566Z,98.95
2019-02-02T07:48:08.558Z,98.95
2019-02-02T07:49:08.579Z,99.05
2019-02-02T07:50:08.535Z,99.16
2019-02-02T07:51:08.525Z,98.74
2019-02-02T07:52:08.518Z,99.16
2019-02-02T07:53:08.511Z,98.95
2019-02-02T07:54:08.494Z,98.74
2019-02-02T07:55:08.494Z,99.16
2019-02-02T07:56:08.472Z,98.95
2019-02-02T07:57:08.484Z,99.16
2019-02-02T07:58:08.454Z,99.05
2019-02-02T07:59:08.438Z,98.95
2019-02-02T08:00:08.439Z,98.11
2019-02-02T08:01:08.426Z,98.18
2019-02-02T08:02:08.410Z,97.86
2019-02-02T08:03:08.393Z,98.38
2019-02-02T08:04:08.388Z,97.91
2019-02-02T08:05:08.371Z,98.11
2019-02-02T08:06:08.375Z,98.11
2019-02-02T08:07:08.351Z,97.91
2019-02-02T08:08:08.339Z,97.80
2019-02-02T08:09:08.329Z,97.59
2019-02-02T08:10:08.326Z,98.32
2019-02-02T08:11:08.307Z,98.07
2019-02-02T08:12:08.308Z,98.38
2019-02-02T08:13:08.286Z,98.38
2019-02-02T08:14:11.293Z,98.38
2019-02-02T08:15:08.263Z,97.96
2019-02-02T08:16:08.266Z,98.18
2019-02-02T08:17:08.243Z,98.01
2019-02-02T08:18:08.232Z,98.07
2019-02-02T08:19:08.233Z,98.43
2019-02-02T08:20:08.209Z,97.91
2019-02-02T08:21:08.357Z,98.11
2019-02-02T08:22:08.199Z,98.07
2019-02-02T08:23:08.178Z,98.01
2019-02-02T08:24:08.164Z,97.86
2019-02-02T08:25:08.156Z,98.07
2019-02-02T08:26:08.150Z,97.86
2019-02-02T08:27:08.150Z,97.86
2019-02-02T08:28:08.127Z,98.28
2019-02-02T08:29:08.113Z,98.28
2019-02-02T08:30:08.102Z,97.96
2019-02-02T08:31:08.088Z,98.38
2019-02-02T08:32:08.095Z,98.28
2019-02-02T08:33:08.089Z,98.34
2019-02-02T08:34:08.064Z,98.07
2019-02-02T08:35:08.087Z,98.38
2019-02-02T08:36:08.036Z,97.96
2019-02-02T08:37:08.023Z,98.28
2019-02-02T08:38:08.015Z,98.55
2019-02-02T08:39:08.006Z,98.69
2019-02-02T08:40:07.995Z,99.11
2019-02-02T08:41:07.993Z,98.80
2019-02-02T08:42:07.969Z,98.59
2019-02-02T08:43:07.962Z,99.11
2019-02-02T08:44:07.948Z,98.55
2019-02-02T08:45:07.938Z,98.55
2019-02-02T08:46:07.947Z,99.18
2019-02-02T08:47:07.923Z,99.11
2019-02-02T08:48:07.903Z,99.01
2019-02-02T08:49:07.897Z,99.11
2019-02-02T08:50:07.883Z,98.86
2019-02-02T08:51:07.884Z,98.91
2019-02-02T08:52:07.875Z,98.65
2019-02-02T08:53:07.849Z,98.91
2019-02-02T08:54:07.850Z,99.11
2019-02-02T08:55:07.829Z,98.91
2019-02-02T08:56:07.849Z,98.65
2019-02-02T08:57:08.027Z,99.11
2019-02-02T08:58:07.835Z,99.01
2019-02-02T08:59:07.784Z,99.01
2019-02-02T09:00:07.777Z,99.11
2019-02-02T09:01:07.768Z,99.43
2019-02-02T09:02:07.780Z,99.70
2019-02-02T09:03:07.742Z,99.59
2019-02-02T09:04:07.733Z,99.59
2019-02-02T09:05:07.813Z,99.70
2019-02-02T09:06:07.716Z,99.70
2019-02-02T09:07:07.709Z,99.49
2019-02-02T09:08:07.801Z,99.38
2019-02-02T09:09:07.678Z,99.49
2019-02-02T09:10:07.694Z,99.28
2019-02-02T09:11:07.655Z,99.28
2019-02-02T09:12:07.717Z,99.28
2019-02-02T09:13:07.634Z,99.49
2019-02-02T09:14:07.629Z,98.97
2019-02-02T09:15:07.613Z,98.97
2019-02-02T09:16:07.635Z,99.28
2019-02-02T09:17:07.590Z,99.49
2019-02-02T09:18:07.576Z,99.02
2019-02-02T09:19:07.566Z,98.71
2019-02-02T09:20:07.562Z,99.02
2019-02-02T09:21:07.548Z,98.61
2019-02-02T09:22:07.548Z,98.71
2019-02-02T09:23:07.526Z,98.71
2019-02-02T09:24:07.512Z,99.13
2019-02-02T09:25:07.501Z,98.92
2019-02-02T09:26:07.500Z,98.92
2019-02-02T09:27:07.502Z,99.02
2019-02-02T09:28:07.469Z,98.92
2019-02-02T09:29:10.414Z,98.92
2019-02-02T09:30:07.447Z,98.82
2019-02-02T09:31:15.531Z,98.92
2019-02-02T09:32:08.433Z,98.92
2019-02-02T09:33:07.428Z,98.92
2019-02-02T09:34:07.404Z,98.92
2019-02-02T09:35:07.394Z,98.92
2019-02-02T09:36:07.382Z,98.92
2019-02-02T09:37:07.382Z,99.02
2019-02-02T09:38:07.382Z,98.56
2019-02-02T09:39:07.359Z,98.71
2019-02-02T09:40:07.338Z,98.61
2019-02-02T09:41:07.330Z,98.61
2019-02-02T09:42:07.316Z,99.02
2019-02-02T09:43:07.305Z,99.02
2019-02-02T09:44:07.342Z,99.24
2019-02-02T09:45:07.284Z,98.35
2019-02-02T09:46:07.275Z,98.56
2019-02-02T09:47:07.262Z,98.35
2019-02-02T09:48:07.251Z,97.94
2019-02-02T09:49:07.239Z,98.25
2019-02-02T09:50:07.276Z,98.25
2019-02-02T09:51:07.217Z,97.94
2019-02-02T09:52:07.207Z,97.83
2019-02-02T09:53:07.197Z,97.62
2019-02-02T09:54:09.084Z,97.41
2019-02-02T09:55:07.174Z,97.20
2019-02-02T09:56:07.186Z,98.04
2019-02-02T09:57:07.157Z,98.25
2019-02-02T09:58:08.838Z,97.83
2019-02-02T09:59:09.767Z,98.25
2019-02-02T10:00:07.134Z,97.72
2019-02-02T10:01:07.123Z,98.04
2019-02-02T10:02:07.110Z,98.14
2019-02-02T10:03:07.087Z,97.41
2019-02-02T10:04:07.076Z,97.41
2019-02-02T10:05:07.065Z,97.20
2019-02-02T10:06:07.074Z,97.62
2019-02-02T10:07:07.044Z,97.62
2019-02-02T10:08:07.039Z,98.04
2019-02-02T10:09:07.024Z,97.00
2019-02-02T10:10:07.011Z,97.10
2019-02-02T10:11:07.006Z,97.00
2019-02-02T10:12:07.008Z,97.10
2019-02-02T10:13:06.979Z,96.89
2019-02-02T10:14:06.975Z,97.10
2019-02-02T10:15:06.961Z,97.31
2019-02-02T10:16:06.960Z,97.20
2019-02-02T10:17:06.964Z,96.89
2019-02-02T10:18:06.924Z,97.62
2019-02-02T10:19:06.912Z,97.62
2019-02-02T10:20:06.909Z,97.00
2019-02-02T10:21:06.890Z,97.20
2019-02-02T10:22:06.880Z,97.00
2019-02-02T10:23:06.880Z,97.52
2019-02-02T10:24:06.861Z,96.89
2019-02-02T10:25:06.846Z,97.00
2019-02-02T10:26:06.861Z,97.10
2019-02-02T10:27:06.824Z,97.20
2019-02-02T10:28:06.830Z,97.62
2019-02-02T10:29:06.802Z,97.62
2019-02-02T10:30:06.791Z,97.52
2019-02-02T10:31:06.781Z,97.37
2019-02-02T10:32:06.781Z,97.83
2019-02-02T10:33:06.793Z,97.83
2019-02-02T10:34:06.748Z,98.14
2019-02-02T10:35:06.735Z,97.83
2019-02-02T10:36:06.732Z,97.27
2019-02-02T10:37:06.715Z,97.99
2019-02-02T10:38:06.715Z,96.84
2019-02-02T10:39:06.709Z,97.20
2019-02-02T10:40:06.681Z,96.89
2019-02-02T10:41:06.683Z,97.62
2019-02-02T10:42:06.664Z,97.62
2019-02-02T10:43:06.654Z,96.95
2019-02-02T10:44:06.657Z,96.89
2019-02-02T10:45:06.627Z,97.52
2019-02-02T10:46:06.733Z,98.25
2019-02-02T10:47:06.646Z,97.99
2019-02-02T10:48:06.596Z,98.14
2019-02-02T10:49:06.606Z,97.72
2019-02-02T10:50:06.589Z,98.14
2019-02-02T10:51:06.560Z,99.19
2019-02-02T10:52:06.550Z,98.77
2019-02-02T10:53:06.556Z,98.98
2019-02-02T10:54:06.530Z,98.77
2019-02-02T10:55:06.525Z,98.88
2019-02-02T10:56:06.525Z,98.77
2019-02-02T10:57:06.513Z,99.19
2019-02-02T10:58:06.486Z,99.40
2019-02-02T10:59:06.473Z,99.19
2019-02-02T11:00:06.464Z,99.51
2019-02-02T11:01:06.453Z,99.71
2019-02-02T11:02:08.134Z,99.51
2019-02-02T11:03:06.443Z,99.51
2019-02-02T11:04:06.453Z,99.51
2019-02-02T11:05:06.441Z,99.19
2019-02-02T11:06:06.431Z,99.71
2019-02-02T11:07:06.475Z,99.82
2019-02-02T11:08:06.459Z,99.92
2019-02-02T11:09:06.372Z,99.99
2019-02-02T11:10:06.354Z,99.99
2019-02-02T11:11:06.417Z,99.99
2019-02-02T11:12:06.331Z,99.99
2019-02-02T11:13:06.423Z,99.99
2019-02-02T11:14:06.326Z,99.99
2019-02-02T11:15:06.315Z,99.99
2019-02-02T11:16:08.480Z,99.99
2019-02-02T11:17:06.383Z,99.99
2019-02-02T11:18:06.281Z,99.92
2019-02-02T11:19:06.309Z,99.82
2019-02-02T11:20:06.289Z,99.92
2019-02-02T11:21:06.253Z,99.82
2019-02-02T11:22:06.338Z,99.82
2019-02-02T11:23:06.221Z,99.99
2019-02-02T11:24:06.201Z,99.92
2019-02-02T11:25:06.262Z,99.99
2019-02-02T11:26:06.258Z,99.99
2019-02-02T11:27:06.210Z,99.99
2019-02-02T11:28:06.203Z,99.99
2019-02-02T11:29:06.277Z,99.99
2019-02-02T11:30:06.230Z,99.92
2019-02-02T11:31:06.137Z,99.99
2019-02-02T11:32:06.148Z,99.99
2019-02-02T11:33:06.103Z,99.99
2019-02-02T11:34:06.194Z,99.99
2019-02-02T11:35:06.086Z,99.99
2019-02-02T11:36:06.073Z,99.99
2019-02-02T11:37:06.068Z,99.92
2019-02-02T11:38:06.093Z,99.71
2019-02-02T11:39:06.037Z,99.99
2019-02-02T11:40:06.025Z,99.82
2019-02-02T11:41:06.017Z,99.99
2019-02-02T11:42:06.008Z,99.82
2019-02-02T11:43:05.995Z,99.71
2019-02-02T11:44:06.004Z,99.82
2019-02-02T11:45:05.973Z,99.92
2019-02-02T11:46:05.962Z,99.71
2019-02-02T11:47:05.965Z,99.99
2019-02-02T11:48:05.940Z,99.99
2019-02-02T11:49:05.934Z,99.92
2019-02-02T11:50:05.927Z,99.99
2019-02-02T11:51:05.906Z,99.51
2019-02-02T11:52:05.907Z,99.40
2019-02-02T11:53:05.885Z,99.92
2019-02-02T11:54:05.877Z,99.99
2019-02-02T11:55:05.872Z,99.82
2019-02-02T11:56:05.887Z,99.92
2019-02-02T11:57:05.891Z,99.92
2019-02-02T11:58:05.834Z,99.99
2019-02-02T11:59:05.821Z,99.92
2019-02-02T12:00:05.807Z,99.99
2019-02-02T12:01:05.797Z,99.82
2019-02-02T12:02:14.273Z,99.71
2019-02-02T12:03:06.816Z,99.99
2019-02-02T12:04:05.769Z,99.99
2019-02-02T12:05:05.753Z,99.92
2019-02-02T12:06:05.758Z,99.82
2019-02-02T12:07:05.736Z,99.99
2019-02-02T12:08:05.727Z,99.99
2019-02-02T12:09:05.749Z,99.99
2019-02-02T12:10:05.700Z,99.99
2019-02-02T12:11:05.686Z,99.92
2019-02-02T12:12:05.682Z,99.99
2019-02-02T12:13:05.673Z,99.99
2019-02-02T12:14:05.656Z,99.99
2019-02-02T12:15:05.657Z,99.99
2019-02-02T12:16:05.637Z,99.99
2019-02-02T12:17:05.658Z,99.99
2019-02-02T12:18:06.353Z,99.99
2019-02-02T12:19:05.601Z,99.99
2019-02-02T12:20:05.590Z,99.99
2019-02-02T12:21:05.579Z,99.99
2019-02-02T12:22:05.567Z,99.99
2019-02-02T12:23:05.572Z,99.99
2019-02-02T12:24:14.217Z,99.99
2019-02-02T12:25:06.552Z,99.99
2019-02-02T12:26:05.526Z,99.99
2019-02-02T12:27:05.517Z,99.99
2019-02-02T12:28:05.502Z,99.99
2019-02-02T12:29:05.492Z,99.99
2019-02-02T12:30:05.501Z,99.99
2019-02-02T12:31:05.469Z,99.99
2019-02-02T12:32:05.460Z,99.99
2019-02-02T12:33:05.447Z,99.99
2019-02-02T12:34:05.438Z,99.99
2019-02-02T12:35:05.438Z,99.99
2019-02-02T12:36:05.424Z,99.99
2019-02-02T12:37:05.417Z,99.99
2019-02-02T12:38:05.404Z,99.99
2019-02-02T12:39:05.390Z,99.99
2019-02-02T12:40:05.406Z,99.99
2019-02-02T12:41:05.361Z,99.99
2019-02-02T12:42:05.356Z,99.99
2019-02-02T12:43:05.514Z,99.99
2019-02-02T12:44:05.401Z,99.99
2019-02-02T12:45:05.324Z,99.99
2019-02-02T12:46:05.319Z,99.99
2019-02-02T12:47:05.296Z,99.99
2019-02-02T12:48:05.286Z,99.99
2019-02-02T12:49:05.278Z,99.99
2019-02-02T12:50:05.275Z,99.99
2019-02-02T12:51:05.256Z,99.99
2019-02-02T12:52:05.240Z,99.99